Time;durP1;ratioP1;P1;durP2;ratioP2;P2;SDS_P1;SDS_P2;PMS_P1;PMS_P2;Temp;Humidity;BMP_temperature;BMP_pressure;BME280_temperature;BME280_humidity;BME280_pressure;Samples;Min_cycle;Max_cycle;Signal;HPM_P1;HPM_P2
2023/10/18 00:00:44;;;;;;;9.67;5.40;;;6.80;99.90;;;;;;5095399;28;20418;-72
2023/10/18 00:03:30;;;;;;;7.37;4.50;;;6.90;99.90;;;;;;5087405;28;20975;-72
2023/10/18 00:06:16;;;;;;;8.07;6.00;;;6.90;99.90;;;;;;5093128;28;20457;-71
2023/10/18 00:09:38;;;;;;;10.37;5.93;;;6.90;99.90;;;;;;5087280;28;20206;-72
2023/10/18 00:12:08;;;;;;;7.53;6.03;;;6.90;99.90;;;;;;5079874;28;20648;-73
2023/10/18 00:14:55;;;;;;;7.73;5.50;;;6.90;99.90;;;;;;5092414;28;20476;-71
2023/10/18 00:17:40;;;;;;;9.10;5.77;;;6.90;99.90;;;;;;5092002;28;20441;-72
2023/10/18 00:20:26;;;;;;;8.30;6.10;;;6.80;99.90;;;;;;5083802;28;20938;-72
2023/10/18 00:23:12;;;;;;;7.03;5.40;;;6.80;99.90;;;;;;5084017;28;20442;-71
2023/10/18 00:26:00;;;;;;;10.00;6.22;;;6.80;99.90;;;;;;5084773;28;20814;-72
2023/10/18 00:28:46;;;;;;;8.27;5.63;;;6.80;99.90;;;;;;5089235;28;20568;-72
2023/10/18 00:31:32;;;;;;;10.00;6.00;;;6.70;99.90;;;;;;5085158;28;20438;-72
2023/10/18 00:34:18;;;;;;;9.47;6.80;;;6.70;99.90;;;;;;5085970;28;20239;-73
2023/10/18 00:37:07;;;;;;;8.40;6.33;;;6.80;99.90;;;;;;5093032;28;20979;-72
2023/10/18 00:39:53;;;;;;;9.37;6.00;;;6.70;99.90;;;;;;5088456;28;20443;-71
2023/10/18 00:42:40;;;;;;;10.33;5.93;;;6.80;99.90;;;;;;5083675;28;20505;-71
2023/10/18 00:45:29;;;;;;;10.87;6.83;;;6.80;99.90;;;;;;5083553;28;21055;-72
2023/10/18 00:48:14;;;;;;;8.07;6.35;;;6.70;99.90;;;;;;5094090;28;20436;-73
2023/10/18 00:51:00;;;;;;;8.80;6.93;;;6.70;99.90;;;;;;5083885;28;20203;-72
2023/10/18 00:53:46;;;;;;;10.27;6.70;;;6.70;99.90;;;;;;5096140;28;20902;-72
2023/10/18 00:56:33;;;;;;;10.90;6.50;;;6.60;99.90;;;;;;5085813;28;20281;-72
2023/10/18 00:59:26;;;;;;;10.30;7.03;;;6.70;99.90;;;;;;5085491;28;20450;-72
2023/10/18 01:02:18;;;;;;;9.77;6.90;;;6.60;99.90;;;;;;5083885;28;20489;-73
2023/10/18 01:05:08;;;;;;;10.30;6.97;;;6.70;99.90;;;;;;5098814;28;20639;-72
2023/10/18 01:07:54;;;;;;;9.37;7.23;;;6.70;99.90;;;;;;5084798;28;20574;-72
2023/10/18 01:10:42;;;;;;;11.17;7.13;;;6.70;99.90;;;;;;5091671;28;20452;-72
2023/10/18 01:13:27;;;;;;;10.63;7.97;;;6.60;99.90;;;;;;5082697;28;20451;-72
2023/10/18 01:16:14;;;;;;;10.93;8.03;;;6.50;99.90;;;;;;5085922;28;20595;-73
2023/10/18 01:19:04;;;;;;;14.43;8.10;;;6.50;99.90;;;;;;5088099;28;21138;-72
2023/10/18 01:21:51;;;;;;;10.13;8.40;;;6.50;99.90;;;;;;5093612;28;20434;-72
2023/10/18 01:24:39;;;;;;;11.17;7.80;;;6.50;99.90;;;;;;5089070;28;20442;-71
2023/10/18 01:27:24;;;;;;;11.57;8.25;;;6.60;99.90;;;;;;5086831;28;20815;-72
2023/10/18 01:30:14;;;;;;;13.57;8.77;;;6.60;99.90;;;;;;5094683;28;20254;-72
2023/10/18 01:33:00;;;;;;;10.93;8.27;;;6.50;99.90;;;;;;5091272;28;20442;-72
2023/10/18 01:35:50;;;;;;;11.73;8.07;;;6.40;99.90;;;;;;5084923;28;21127;-72
2023/10/18 01:38:36;;;;;;;13.00;8.17;;;6.40;99.90;;;;;;5085919;28;20803;-72
2023/10/18 01:41:27;;;;;;;11.30;7.90;;;6.40;99.90;;;;;;5081295;28;20897;-72
2023/10/18 01:44:18;;;;;;;10.10;7.40;;;6.40;99.90;;;;;;5088190;28;20674;-71
2023/10/18 01:47:06;;;;;;;12.10;8.40;;;6.30;99.90;;;;;;5095141;28;20445;-72
2023/10/18 01:49:53;;;;;;;8.07;7.20;;;6.30;99.90;;;;;;5084444;28;20443;-72
2023/10/18 01:52:38;;;;;;;12.33;8.60;;;6.20;99.90;;;;;;5093345;28;20465;-72
2023/10/18 01:55:28;;;;;;;11.75;8.68;;;6.20;99.90;;;;;;5088524;28;20999;-72
2023/10/18 01:58:15;;;;;;;10.43;8.60;;;6.10;99.90;;;;;;5095502;28;20219;-72
2023/10/18 02:01:02;;;;;;;11.80;8.38;;;6.20;99.90;;;;;;5090441;28;20200;-72
2023/10/18 02:03:50;;;;;;;9.60;7.83;;;6.20;99.90;;;;;;5089531;28;20262;-72
2023/10/18 02:06:36;;;;;;;10.30;8.23;;;6.10;99.90;;;;;;5084234;28;20463;-71
2023/10/18 02:09:23;;;;;;;10.13;8.95;;;6.10;99.90;;;;;;5089890;28;20443;-73
2023/10/18 02:12:09;;;;;;;9.05;7.57;;;6.00;99.90;;;;;;5082040;28;20623;-73
2023/10/18 02:14:56;;;;;;;10.30;8.00;;;6.00;99.90;;;;;;5081927;28;20293;-73
2023/10/18 02:17:43;;;;;;;12.20;8.10;;;6.00;99.90;;;;;;5082417;28;20468;-72
2023/10/18 02:20:29;;;;;;;10.93;8.10;;;6.00;99.90;;;;;;5087713;28;20450;-72
2023/10/18 02:23:14;;;;;;;10.30;8.40;;;6.00;99.90;;;;;;5087336;28;20535;-72
2023/10/18 02:26:00;;;;;;;10.55;8.88;;;5.90;99.90;;;;;;5086473;28;20459;-73
2023/10/18 02:28:46;;;;;;;12.80;8.07;;;5.80;99.90;;;;;;5090222;28;20751;-72
2023/10/18 02:31:34;;;;;;;12.73;9.10;;;5.90;99.90;;;;;;5096257;28;20528;-73
2023/10/18 02:34:19;;;;;;;10.23;8.00;;;5.80;99.90;;;;;;5096517;28;20463;-72
2023/10/18 02:37:07;;;;;;;8.83;7.50;;;5.90;99.90;;;;;;5094480;28;20514;-72
2023/10/18 02:40:07;;;;;;;10.67;8.00;;;5.90;99.90;;;;;;5097608;28;20807;-72
2023/10/18 02:42:55;;;;;;;11.40;9.23;;;5.80;99.90;;;;;;5090242;28;20968;-71
2023/10/18 02:45:42;;;;;;;10.33;9.30;;;5.80;99.90;;;;;;5082837;28;20819;-72
2023/10/18 02:48:29;;;;;;;9.80;7.70;;;5.80;99.90;;;;;;5096967;28;20458;-72
2023/10/18 02:51:15;;;;;;;12.20;7.87;;;5.70;99.90;;;;;;5087864;28;20973;-72
2023/10/18 02:54:07;;;;;;;12.52;9.43;;;5.70;99.90;;;;;;5094743;28;20964;-72
2023/10/18 02:56:53;;;;;;;13.82;9.77;;;5.60;99.90;;;;;;5090540;28;20701;-73
2023/10/18 02:59:40;;;;;;;10.88;8.15;;;5.70;99.90;;;;;;5086050;28;20271;-72
2023/10/18 03:02:26;;;;;;;14.55;8.98;;;5.70;99.90;;;;;;5089021;28;20203;-72
2023/10/18 03:05:13;;;;;;;11.05;7.88;;;5.70;99.90;;;;;;5093946;28;20216;-72
2023/10/18 03:07:59;;;;;;;12.20;8.27;;;5.70;99.90;;;;;;5087549;28;20286;-72
2023/10/18 03:10:47;;;;;;;12.85;9.48;;;5.60;99.90;;;;;;5085429;28;20583;-72
2023/10/18 03:13:37;;;;;;;10.38;8.70;;;5.50;99.90;;;;;;5094682;28;20346;-71
2023/10/18 03:16:38;;;;;;;10.88;8.10;;;5.40;99.90;;;;;;5085737;28;20232;-72
2023/10/18 03:19:24;;;;;;;10.18;8.60;;;5.50;99.90;;;;;;5088901;28;20330;-71
2023/10/18 03:22:12;;;;;;;11.40;9.15;;;5.40;99.90;;;;;;5092532;28;20194;-71
2023/10/18 03:24:59;;;;;;;12.15;8.85;;;5.40;99.90;;;;;;5095641;28;20222;-72
2023/10/18 03:27:50;;;;;;;10.73;8.90;;;5.40;99.90;;;;;;5091888;28;20200;-72
2023/10/18 03:30:44;;;;;;;14.00;9.35;;;5.30;99.90;;;;;;5095496;28;20204;-71
2023/10/18 03:33:32;;;;;;;13.38;8.80;;;5.30;99.90;;;;;;5101226;28;20201;-72
2023/10/18 03:36:20;;;;;;;10.32;8.65;;;5.30;99.90;;;;;;5087032;28;20366;-71
2023/10/18 03:39:12;;;;;;;14.77;9.50;;;5.30;99.90;;;;;;5086549;28;20277;-71
2023/10/18 03:42:00;;;;;;;11.95;9.60;;;5.20;99.90;;;;;;5092391;28;20203;-72
2023/10/18 03:44:46;;;;;;;10.00;8.70;;;5.30;99.90;;;;;;5087895;28;20221;-72
2023/10/18 03:47:36;;;;;;;15.88;10.00;;;5.40;99.90;;;;;;5082894;28;20699;-72
2023/10/18 03:50:28;;;;;;;13.63;9.20;;;5.30;99.90;;;;;;5088053;28;20656;-72
2023/10/18 03:53:14;;;;;;;15.10;9.38;;;5.30;99.90;;;;;;5088805;28;20910;-72
2023/10/18 03:56:04;;;;;;;11.40;8.85;;;5.30;99.90;;;;;;5094264;22;20259;-75
2023/10/18 03:58:53;;;;;;;12.50;10.38;;;5.30;99.90;;;;;;5064359;28;20619;-75
2023/10/18 04:01:44;;;;;;;12.00;10.13;;;5.30;99.90;;;;;;5062728;28;20263;-75
2023/10/18 04:04:34;;;;;;;12.43;9.57;;;5.30;99.90;;;;;;5063580;28;20279;-76
2023/10/18 04:07:20;;;;;;;12.68;10.90;;;5.20;99.90;;;;;;5046147;28;20620;-75
2023/10/18 04:10:13;;;;;;;12.18;9.55;;;5.20;99.90;;;;;;5045994;28;20241;-75
2023/10/18 04:13:00;;;;;;;13.43;10.05;;;5.30;99.90;;;;;;5047086;28;20221;-75
2023/10/18 04:15:46;;;;;;;12.63;11.20;;;5.40;99.90;;;;;;5045439;28;20237;-75
2023/10/18 04:18:35;;;;;;;13.38;10.48;;;5.30;99.90;;;;;;5055020;28;20245;-75
2023/10/18 04:21:25;;;;;;;16.10;11.95;;;5.30;99.90;;;;;;5044316;28;20264;-75
2023/10/18 04:24:11;;;;;;;16.83;11.98;;;5.20;99.90;;;;;;5044865;28;20228;-75
2023/10/18 04:26:57;;;;;;;15.63;11.32;;;5.20;99.90;;;;;;5048608;28;20366;-75
2023/10/18 04:29:47;;;;;;;20.90;10.60;;;5.20;99.90;;;;;;5058135;28;20217;-75
2023/10/18 04:32:33;;;;;;;15.73;11.48;;;5.20;99.90;;;;;;5046452;28;20596;-75
2023/10/18 04:35:25;;;;;;;16.20;13.43;;;5.20;99.90;;;;;;5047032;28;20225;-75
2023/10/18 04:38:22;;;;;;;19.95;12.55;;;5.20;99.90;;;;;;5046487;28;20240;-75
2023/10/18 04:41:08;;;;;;;13.95;11.48;;;5.30;99.90;;;;;;5054981;28;20723;-75
2023/10/18 04:43:59;;;;;;;17.27;10.98;;;5.40;99.90;;;;;;5047533;28;20201;-75
2023/10/18 04:46:47;;;;;;;14.35;11.70;;;5.40;99.90;;;;;;5051261;28;20860;-75
2023/10/18 04:49:38;;;;;;;17.38;11.38;;;5.40;99.90;;;;;;5048329;28;20208;-75
2023/10/18 04:52:28;;;;;;;14.88;11.77;;;5.40;99.90;;;;;;5043003;28;20582;-75
2023/10/18 04:55:14;;;;;;;20.77;11.45;;;5.30;99.90;;;;;;5038810;28;20850;-75
2023/10/18 04:57:59;;;;;;;15.43;12.25;;;5.40;99.90;;;;;;5046371;28;20247;-75
2023/10/18 05:00:56;;;;;;;14.45;10.50;;;5.30;99.90;;;;;;5045059;28;20209;-75
2023/10/18 05:03:44;;;;;;;16.15;11.95;;;5.20;99.90;;;;;;5045567;28;20324;-75
2023/10/18 05:06:34;;;;;;;15.40;11.35;;;5.30;99.90;;;;;;5043861;28;20217;-75
2023/10/18 05:09:29;;;;;;;13.23;11.00;;;5.30;99.90;;;;;;5042572;28;20209;-75
2023/10/18 05:12:28;;;;;;;21.10;11.43;;;5.20;99.90;;;;;;5048081;28;20205;-75
2023/10/18 05:15:21;;;;;;;17.08;12.38;;;5.20;99.90;;;;;;5038367;28;20455;-75
2023/10/18 05:18:15;;;;;;;14.45;11.57;;;5.30;99.90;;;;;;5045516;28;20205;-75
2023/10/18 05:21:07;;;;;;;18.88;12.07;;;5.30;99.90;;;;;;5051133;28;20592;-74
2023/10/18 05:23:53;;;;;;;15.80;11.15;;;5.30;99.90;;;;;;5040882;28;20213;-76
2023/10/18 05:26:39;;;;;;;14.02;11.93;;;5.40;99.90;;;;;;5045730;28;20237;-75
2023/10/18 05:29:25;;;;;;;14.85;12.05;;;5.30;99.90;;;;;;5045653;28;20335;-75
2023/10/18 05:32:25;;;;;;;15.50;12.93;;;5.30;99.90;;;;;;5044866;28;20315;-75
2023/10/18 05:35:26;;;;;;;15.50;12.68;;;5.30;99.90;;;;;;5054764;28;20208;-75
2023/10/18 05:38:39;;;;;;;15.65;12.40;;;5.20;99.90;;;;;;5048853;28;20342;-75
2023/10/18 05:41:28;;;;;;;16.77;12.50;;;5.20;99.90;;;;;;5049499;28;20742;-75
2023/10/18 05:44:14;;;;;;;16.45;12.63;;;5.20;99.90;;;;;;5046419;28;20625;-75
2023/10/18 05:46:59;;;;;;;14.85;11.65;;;5.20;99.90;;;;;;5048308;28;20221;-75
2023/10/18 05:49:45;;;;;;;20.92;12.75;;;5.20;99.90;;;;;;5047842;28;20238;-75
2023/10/18 05:52:37;;;;;;;14.05;11.95;;;5.20;99.90;;;;;;5047060;28;20212;-75
2023/10/18 05:55:24;;;;;;;16.83;12.45;;;5.20;99.90;;;;;;5043028;28;20279;-75
2023/10/18 05:58:10;;;;;;;18.98;13.93;;;5.30;99.90;;;;;;5047977;28;20200;-75
2023/10/18 06:00:57;;;;;;;18.08;13.77;;;5.30;99.90;;;;;;5048124;28;20220;-75
2023/10/18 06:03:42;;;;;;;15.63;12.80;;;5.10;99.90;;;;;;5046691;28;20197;-75
2023/10/18 06:06:28;;;;;;;17.38;12.88;;;5.20;99.90;;;;;;5043463;28;20224;-75
2023/10/18 06:09:26;;;;;;;15.35;13.43;;;5.10;99.90;;;;;;5046620;28;20680;-75
2023/10/18 06:12:15;;;;;;;20.80;14.00;;;5.20;99.90;;;;;;5042705;28;20246;-75
2023/10/18 06:15:10;;;;;;;17.00;12.75;;;5.40;99.90;;;;;;5047458;28;20201;-75
2023/10/18 06:17:57;;;;;;;17.92;13.77;;;5.40;99.90;;;;;;5047649;28;20251;-75
2023/10/18 06:20:44;;;;;;;16.20;13.85;;;5.40;99.90;;;;;;5046361;28;20271;-75
2023/10/18 06:23:39;;;;;;;20.50;15.00;;;5.40;99.90;;;;;;5046011;28;20581;-75
2023/10/18 06:26:33;;;;;;;19.00;14.40;;;5.50;99.90;;;;;;5051477;28;20221;-75
2023/10/18 06:29:23;;;;;;;17.50;15.50;;;5.50;99.90;;;;;;5053826;28;20582;-75
2023/10/18 06:32:13;;;;;;;20.15;14.07;;;5.50;99.90;;;;;;5050332;28;20684;-75
2023/10/18 06:34:58;;;;;;;19.00;13.10;;;5.50;99.90;;;;;;5054612;28;20252;-75
2023/10/18 06:37:44;;;;;;;15.95;13.02;;;5.60;99.90;;;;;;5046251;28;20257;-75
2023/10/18 06:40:43;;;;;;;16.40;14.02;;;5.60;99.90;;;;;;5044894;28;20329;-75
2023/10/18 06:43:29;;;;;;;21.48;15.52;;;5.70;99.90;;;;;;5046073;28;20210;-77
2023/10/18 06:46:26;;;;;;;15.75;14.05;;;5.70;99.90;;;;;;5053393;28;20220;-75
2023/10/18 06:49:12;;;;;;;16.15;13.15;;;5.80;99.90;;;;;;5047995;28;20800;-75
2023/10/18 06:52:00;;;;;;;15.43;12.93;;;5.80;99.90;;;;;;5042917;28;21361;-75
2023/10/18 06:54:46;;;;;;;16.27;13.75;;;6.00;99.90;;;;;;5047449;28;20225;-75
2023/10/18 06:57:36;;;;;;;20.63;14.43;;;6.00;99.90;;;;;;5042363;28;20222;-75
2023/10/18 07:00:21;;;;;;;18.95;12.70;;;6.10;99.90;;;;;;5048173;28;20695;-75
2023/10/18 07:03:09;;;;;;;16.77;13.20;;;6.30;99.90;;;;;;5048857;28;20209;-75
2023/10/18 07:06:04;;;;;;;16.58;13.23;;;6.40;99.90;;;;;;5047984;28;20255;-75
2023/10/18 07:08:51;;;;;;;16.80;11.37;;;6.50;99.90;;;;;;5053417;28;20282;-75
2023/10/18 07:11:39;;;;;;;20.80;12.50;;;6.70;99.90;;;;;;5050111;28;20820;-75
2023/10/18 07:14:25;;;;;;;19.47;12.80;;;6.70;99.90;;;;;;5048442;28;20444;-75
2023/10/18 07:17:10;;;;;;;15.57;12.38;;;6.80;99.90;;;;;;5042587;28;20482;-75
2023/10/18 07:19:58;;;;;;;14.23;11.95;;;6.80;99.90;;;;;;5044838;28;20213;-75
2023/10/18 07:22:45;;;;;;;14.37;11.33;;;6.90;99.90;;;;;;5048482;28;20576;-75
2023/10/18 07:25:32;;;;;;;16.40;13.00;;;7.00;99.90;;;;;;5042386;28;20474;-75
2023/10/18 07:28:21;;;;;;;16.00;12.27;;;7.00;99.90;;;;;;5044675;28;20442;-75
2023/10/18 07:31:09;;;;;;;18.70;14.03;;;7.10;99.90;;;;;;5052678;28;20540;-75
2023/10/18 07:33:55;;;;;;;15.97;12.47;;;7.30;99.90;;;;;;5050132;28;20674;-75
2023/10/18 07:36:44;;;;;;;16.13;11.73;;;7.40;99.90;;;;;;5043319;28;20482;-75
2023/10/18 07:39:32;;;;;;;16.83;13.27;;;7.60;99.90;;;;;;5042911;28;20448;-75
2023/10/18 07:42:18;;;;;;;15.57;12.87;;;7.70;99.90;;;;;;5042695;28;20453;-75
2023/10/18 07:45:08;;;;;;;17.00;12.63;;;7.70;99.90;;;;;;5051259;28;20437;-75
2023/10/18 07:47:54;;;;;;;19.17;12.97;;;7.90;99.90;;;;;;5055346;28;20558;-75
2023/10/18 07:50:50;;;;;;;16.43;12.47;;;8.00;99.90;;;;;;5046312;28;20447;-75
2023/10/18 07:53:37;;;;;;;15.90;11.53;;;8.20;99.90;;;;;;5048105;28;20583;-75
2023/10/18 07:56:27;;;;;;;15.43;11.57;;;8.30;99.90;;;;;;5046960;28;20476;-75
2023/10/18 07:59:30;;;;;;;18.83;13.03;;;8.40;99.90;;;;;;5049952;28;20448;-75
2023/10/18 08:02:23;;;;;;;15.07;10.93;;;8.60;99.90;;;;;;5047450;28;20456;-75
2023/10/18 08:05:09;;;;;;;16.60;13.17;;;8.60;99.90;;;;;;5051667;28;20440;-75
2023/10/18 08:07:57;;;;;;;17.40;12.40;;;8.70;99.90;;;;;;5040348;28;20515;-75
2023/10/18 08:10:44;;;;;;;15.43;12.70;;;8.80;99.90;;;;;;5044088;28;20586;-75
2023/10/18 08:13:31;;;;;;;19.77;13.50;;;8.80;99.90;;;;;;5056744;28;20962;-75
2023/10/18 08:16:20;;;;;;;20.33;12.70;;;8.90;99.90;;;;;;5046496;28;20519;-75
2023/10/18 08:19:07;;;;;;;16.10;13.30;;;9.00;99.90;;;;;;5045388;28;20451;-75
2023/10/18 08:22:21;;;;;;;17.80;12.10;;;9.10;99.90;;;;;;5040624;28;20575;-75
2023/10/18 08:25:21;;;;;;;17.23;12.10;;;9.10;99.90;;;;;;5043128;28;20459;-75
2023/10/18 08:28:13;;;;;;;27.43;13.00;;;9.30;99.90;;;;;;5048376;28;20456;-74
2023/10/18 08:31:04;;;;;;;17.17;12.60;;;9.40;99.90;;;;;;5047209;28;20872;-75
2023/10/18 08:33:52;;;;;;;15.70;12.27;;;9.50;99.90;;;;;;5040052;28;20463;-74
2023/10/18 08:36:40;;;;;;;17.07;12.20;;;9.50;99.90;;;;;;5042069;28;20965;-75
2023/10/18 08:39:26;;;;;;;20.50;13.70;;;9.60;99.90;;;;;;5045674;28;21112;-75
2023/10/18 08:42:15;;;;;;;19.50;13.50;;;9.70;99.90;;;;;;5042579;28;20435;-75
2023/10/18 08:45:04;;;;;;;20.77;13.40;;;9.80;99.90;;;;;;5051836;28;20443;-75
2023/10/18 08:47:57;;;;;;;20.17;13.33;;;9.90;99.90;;;;;;5043319;28;20408;-76
2023/10/18 08:50:43;;;;;;;15.97;12.00;;;10.00;99.90;;;;;;5053685;28;20532;-75
2023/10/18 08:53:32;;;;;;;16.57;12.33;;;10.10;99.90;;;;;;5041100;28;20452;-74
2023/10/18 08:56:26;;;;;;;17.67;13.07;;;10.20;99.90;;;;;;5047991;28;20480;-76
2023/10/18 08:59:18;;;;;;;17.87;12.27;;;10.30;99.90;;;;;;5070658;28;20470;-75
2023/10/18 09:02:12;;;;;;;16.83;11.90;;;10.50;99.90;;;;;;5069189;28;20530;-76
2023/10/18 09:04:59;;;;;;;16.70;11.43;;;10.60;99.90;;;;;;5047432;28;20474;-76
2023/10/18 09:07:44;;;;;;;14.03;11.93;;;10.70;99.90;;;;;;5061491;28;20465;-75
2023/10/18 09:10:33;;;;;;;18.57;12.10;;;10.80;99.90;;;;;;5048843;28;20540;-76
2023/10/18 09:13:33;;;;;;;17.10;10.63;;;10.90;99.90;;;;;;5059118;28;20523;-75
2023/10/18 09:16:19;;;;;;;14.70;11.00;;;11.00;99.90;;;;;;5064847;28;20450;-76
2023/10/18 09:19:08;;;;;;;14.40;11.43;;;11.10;99.90;;;;;;5069719;28;20453;-76
2023/10/18 09:21:57;;;;;;;17.00;10.90;;;11.20;99.90;;;;;;5070693;28;20905;-75
2023/10/18 09:24:43;;;;;;;14.90;10.37;;;11.20;99.90;;;;;;5063052;28;20442;-76
2023/10/18 09:27:29;;;;;;;17.57;11.73;;;11.30;99.90;;;;;;5048367;28;20574;-75
2023/10/18 09:30:18;;;;;;;19.30;11.20;;;11.30;99.90;;;;;;5043222;28;20928;-75
2023/10/18 09:33:05;;;;;;;17.87;10.40;;;11.40;99.90;;;;;;5068984;28;20796;-76
2023/10/18 09:35:56;;;;;;;13.50;11.23;;;11.40;99.90;;;;;;5061916;28;20848;-76
2023/10/18 09:38:42;;;;;;;16.97;10.17;;;11.50;99.90;;;;;;5062161;28;20477;-76
2023/10/18 09:41:30;;;;;;;13.83;9.97;;;11.50;99.90;;;;;;5060687;28;21009;-75
2023/10/18 09:44:18;;;;;;;15.67;9.83;;;11.60;99.90;;;;;;5057856;28;20451;-74
2023/10/18 09:47:05;;;;;;;13.47;10.00;;;11.70;99.90;;;;;;5052516;28;20451;-75
2023/10/18 09:49:51;;;;;;;14.90;10.40;;;11.70;99.90;;;;;;5043012;28;20449;-75
2023/10/18 09:52:51;;;;;;;15.00;9.60;;;11.80;99.90;;;;;;5050839;28;20413;-75
2023/10/18 09:55:41;;;;;;;13.27;9.53;;;11.90;99.90;;;;;;5043933;28;20477;-75
2023/10/18 09:58:27;;;;;;;15.43;10.33;;;12.10;99.90;;;;;;5048232;28;20466;-75
2023/10/18 10:01:25;;;;;;;12.20;8.43;;;12.20;99.90;;;;;;5041305;28;20495;-75
2023/10/18 10:04:12;;;;;;;12.53;8.60;;;12.40;99.90;;;;;;5050232;28;20451;-76
2023/10/18 10:07:27;;;;;;;12.50;8.40;;;12.50;99.90;;;;;;5056149;28;20501;-76
2023/10/18 10:10:17;;;;;;;10.63;7.60;;;12.70;99.90;;;;;;5041465;28;20969;-76
2023/10/18 10:13:08;;;;;;;9.30;7.20;;;12.90;93.90;;;;;;5053284;28;20446;-75
2023/10/18 10:15:58;;;;;;;14.80;8.73;;;13.10;95.00;;;;;;5051599;28;20448;-76
2023/10/18 10:18:47;;;;;;;13.00;7.73;;;13.20;93.70;;;;;;5041462;28;20607;-75
2023/10/18 10:21:35;;;;;;;8.73;7.43;;;13.40;94.60;;;;;;5047843;28;20789;-76
2023/10/18 10:24:35;;;;;;;13.73;7.70;;;13.60;91.30;;;;;;5052508;28;20410;-76
2023/10/18 10:27:41;;;;;;;9.20;6.13;;;13.70;90.20;;;;;;5032051;28;20526;-76
2023/10/18 10:30:35;;;;;;;11.53;5.90;;;13.90;87.10;;;;;;5057304;28;20422;-76
2023/10/18 10:33:23;;;;;;;6.80;5.33;;;14.20;78.90;;;;;;5044409;28;20921;-76
2023/10/18 10:36:12;;;;;;;12.17;4.77;;;14.30;75.60;;;;;;5037572;28;20982;-77
2023/10/18 10:39:02;;;;;;;7.60;5.00;;;14.40;67.70;;;;;;5035673;28;20480;-75
2023/10/18 10:41:49;;;;;;;6.13;3.83;;;14.40;65.90;;;;;;5037606;28;20411;-76
2023/10/18 10:44:55;;;;;;;8.27;4.20;;;14.40;55.40;;;;;;5050390;28;20410;-76
2023/10/18 10:47:44;;;;;;;5.27;3.50;;;14.20;61.00;;;;;;5062403;28;20393;-77
2023/10/18 10:50:42;;;;;;;5.10;3.60;;;14.10;63.20;;;;;;5044017;28;20395;-76
2023/10/18 10:53:32;;;;;;;6.37;4.07;;;14.20;60.70;;;;;;5061399;28;20418;-76
2023/10/18 10:56:39;;;;;;;7.47;4.43;;;14.30;60.30;;;;;;5047523;28;20463;-75
2023/10/18 10:59:25;;;;;;;6.90;3.90;;;14.50;61.70;;;;;;5062889;28;20519;-76
2023/10/18 11:02:24;;;;;;;6.30;3.90;;;14.70;66.30;;;;;;5047375;28;20424;-75
2023/10/18 11:05:16;;;;;;;6.13;3.60;;;14.80;62.80;;;;;;5043578;28;20767;-76
2023/10/18 11:08:05;;;;;;;4.90;3.60;;;14.90;62.10;;;;;;5052912;28;20422;-74
2023/10/18 11:10:50;;;;;;;6.40;3.40;;;14.90;57.10;;;;;;5058287;28;20431;-76
2023/10/18 11:13:41;;;;;;;7.10;3.20;;;15.00;62.00;;;;;;5054973;28;20435;-76
2023/10/18 11:16:27;;;;;;;5.73;3.30;;;15.00;62.70;;;;;;5067565;28;20544;-76
2023/10/18 11:19:15;;;;;;;5.00;3.20;;;15.20;64.00;;;;;;5042085;28;20482;-76
2023/10/18 11:22:01;;;;;;;7.87;4.07;;;15.20;57.50;;;;;;5049276;28;20488;-76
2023/10/18 11:24:49;;;;;;;5.30;3.20;;;15.30;54.00;;;;;;5047761;28;20799;-77
2023/10/18 11:27:36;;;;;;;5.20;3.40;;;15.40;56.20;;;;;;5036803;28;20429;-76
2023/10/18 11:30:25;;;;;;;11.93;2.80;;;15.40;53.90;;;;;;5047430;28;20555;-76
2023/10/18 11:33:17;;;;;;;5.07;3.13;;;15.40;51.30;;;;;;5039237;28;20909;-75
2023/10/18 11:36:08;;;;;;;6.90;2.80;;;15.50;49.90;;;;;;5055010;28;20921;-76
2023/10/18 11:39:18;;;;;;;5.70;3.30;;;15.50;46.30;;;;;;5054792;28;20521;-76
2023/10/18 11:42:06;;;;;;;8.67;3.37;;;15.50;44.50;;;;;;5056317;28;20402;-76
2023/10/18 11:44:55;;;;;;;5.10;3.13;;;15.50;41.10;;;;;;5043969;28;20448;-77
2023/10/18 11:47:50;;;;;;;4.57;2.97;;;15.50;41.70;;;;;;5048152;28;20420;-77
2023/10/18 11:50:41;;;;;;;6.30;3.03;;;15.60;44.80;;;;;;5037742;28;20497;-76
2023/10/18 11:53:28;;;;;;;4.10;2.70;;;15.60;42.80;;;;;;5048171;28;20776;-76
2023/10/18 11:56:13;;;;;;;11.20;3.00;;;15.60;40.90;;;;;;5053845;28;20427;-76
2023/10/18 11:59:01;;;;;;;8.13;2.50;;;15.70;48.80;;;;;;5061331;28;21013;-76
2023/10/18 12:01:53;;;;;;;6.10;2.73;;;15.70;49.00;;;;;;5052768;28;20550;-76
2023/10/18 12:04:39;;;;;;;4.60;2.80;;;15.80;43.90;;;;;;5043717;28;20404;-76
2023/10/18 12:07:25;;;;;;;3.90;2.73;;;16.00;38.90;;;;;;5054473;28;20393;-76
2023/10/18 12:10:17;;;;;;;6.30;3.73;;;16.00;39.20;;;;;;5047857;28;20401;-77
2023/10/18 12:13:06;;;;;;;7.13;2.50;;;16.00;36.60;;;;;;5069683;28;20436;-77
2023/10/18 12:15:52;;;;;;;5.40;2.73;;;16.00;34.80;;;;;;5041108;28;20507;-76
2023/10/18 12:18:38;;;;;;;4.17;2.60;;;15.90;35.20;;;;;;5050611;28;20551;-76
2023/10/18 12:21:29;;;;;;;3.97;2.50;;;15.80;35.10;;;;;;5059794;28;20423;-76
2023/10/18 12:24:14;;;;;;;5.80;3.03;;;15.70;36.50;;;;;;5044346;28;20481;-76
2023/10/18 12:27:18;;;;;;;7.33;2.30;;;15.70;35.00;;;;;;5061204;28;20450;-76
2023/10/18 12:30:10;;;;;;;4.20;2.77;;;15.70;33.00;;;;;;5049845;28;20478;-76
2023/10/18 12:32:57;;;;;;;6.40;3.33;;;15.60;33.20;;;;;;5050584;28;20829;-76
2023/10/18 12:35:42;;;;;;;6.73;2.67;;;15.50;33.10;;;;;;5059563;28;20947;-76
2023/10/18 12:38:36;;;;;;;6.07;2.17;;;15.40;33.20;;;;;;5046865;28;20433;-76
2023/10/18 12:41:31;;;;;;;4.80;2.90;;;15.30;35.80;;;;;;5066447;28;20949;-75
2023/10/18 12:44:18;;;;;;;5.33;3.13;;;15.30;33.70;;;;;;5057393;28;20419;-76
2023/10/18 12:47:09;;;;;;;8.40;2.87;;;15.20;34.40;;;;;;5069818;28;20485;-75
2023/10/18 12:49:56;;;;;;;5.07;2.60;;;15.20;36.10;;;;;;5046609;28;20426;-76
2023/10/18 12:52:42;;;;;;;3.63;2.83;;;15.20;38.80;;;;;;5057343;28;20434;-75
2023/10/18 12:55:33;;;;;;;9.10;3.43;;;15.10;37.20;;;;;;5047588;28;20508;-76
2023/10/18 12:58:18;;;;;;;9.83;3.37;;;15.10;38.40;;;;;;5052371;28;20450;-76
2023/10/18 13:01:06;;;;;;;4.70;2.90;;;15.00;37.70;;;;;;5043388;28;20963;-74
2023/10/18 13:03:57;;;;;;;4.13;2.67;;;15.00;38.60;;;;;;5047204;28;20426;-77
2023/10/18 13:06:42;;;;;;;3.83;2.70;;;15.00;38.40;;;;;;5046590;28;20703;-76
2023/10/18 13:09:29;;;;;;;8.57;3.70;;;15.00;41.20;;;;;;5044476;28;20501;-76
2023/10/18 13:12:16;;;;;;;4.70;2.80;;;14.90;40.30;;;;;;5051309;28;20461;-76
2023/10/18 13:15:01;;;;;;;4.30;3.00;;;14.90;40.10;;;;;;5054160;28;20456;-75
2023/10/18 13:17:48;;;;;;;4.20;2.63;;;14.90;42.40;;;;;;5048635;28;20488;-75
2023/10/18 13:20:36;;;;;;;5.63;3.23;;;14.90;45.80;;;;;;5049744;28;20450;-76
2023/10/18 13:23:22;;;;;;;7.43;2.70;;;14.90;44.90;;;;;;5056720;28;20498;-76
2023/10/18 13:26:09;;;;;;;7.33;2.20;;;14.90;43.20;;;;;;5049440;28;20844;-76
2023/10/18 13:28:59;;;;;;;5.67;3.10;;;14.90;52.10;;;;;;5055920;28;20611;-75
2023/10/18 13:31:45;;;;;;;5.00;2.70;;;14.90;51.70;;;;;;5057779;28;20431;-74
2023/10/18 13:34:33;;;;;;;5.40;3.33;;;14.80;49.70;;;;;;5046106;28;20545;-76
2023/10/18 13:37:23;;;;;;;4.87;3.10;;;14.80;51.20;;;;;;5056154;28;20450;-76
2023/10/18 13:40:18;;;;;;;4.53;2.97;;;14.70;49.90;;;;;;5052115;28;20458;-76
2023/10/18 13:43:05;;;;;;;6.97;3.20;;;14.70;52.00;;;;;;5050310;28;20505;-76
2023/10/18 13:45:57;;;;;;;5.53;3.73;;;14.60;54.20;;;;;;5054975;28;20456;-76
2023/10/18 13:48:43;;;;;;;5.53;3.27;;;14.70;54.10;;;;;;5043636;28;20427;-76
2023/10/18 13:51:34;;;;;;;13.47;2.83;;;14.70;54.70;;;;;;5042611;28;20487;-76
2023/10/18 13:54:20;;;;;;;6.17;2.40;;;14.60;60.50;;;;;;5054310;28;20418;-75
2023/10/18 13:57:06;;;;;;;4.87;2.90;;;14.70;63.80;;;;;;5062294;28;20432;-76
2023/10/18 13:59:52;;;;;;;9.73;3.40;;;14.70;65.10;;;;;;5048965;28;20964;-77
2023/10/18 14:02:38;;;;;;;8.07;3.40;;;14.70;65.50;;;;;;5050262;28;20422;-76
2023/10/18 14:05:25;;;;;;;5.37;2.90;;;14.60;72.20;;;;;;5047972;28;20451;-77
2023/10/18 14:08:16;;;;;;;4.93;2.80;;;14.60;69.30;;;;;;5052663;28;20469;-77
2023/10/18 14:11:04;;;;;;;4.80;2.83;;;14.60;66.80;;;;;;5061396;28;20420;-76
2023/10/18 14:13:51;;;;;;;6.20;3.17;;;14.60;68.80;;;;;;5055191;28;20406;-76
2023/10/18 14:16:37;;;;;;;5.50;2.77;;;14.50;71.60;;;;;;5043338;28;20982;-76
2023/10/18 14:19:24;;;;;;;7.77;3.17;;;14.50;73.30;;;;;;5057419;28;20484;-76
2023/10/18 14:22:10;;;;;;;5.10;3.30;;;14.50;73.90;;;;;;5056274;28;20473;-76
2023/10/18 14:24:59;;;;;;;4.97;2.90;;;14.50;72.90;;;;;;5059866;28;20421;-74
2023/10/18 14:27:45;;;;;;;7.23;3.30;;;14.50;71.70;;;;;;5054984;28;20820;-75
2023/10/18 14:30:34;;;;;;;5.60;3.20;;;14.40;75.80;;;;;;5053430;28;20427;-75
2023/10/18 14:33:20;;;;;;;7.40;3.10;;;14.40;75.50;;;;;;5056769;28;20808;-76
2023/10/18 14:36:07;;;;;;;4.70;3.10;;;14.40;74.00;;;;;;5066007;28;20416;-76